Time;durP1;ratioP1;P1;durP2;ratioP2;P2;SDS_P1;SDS_P2;PMS_P1;PMS_P2;Temp;Humidity;BMP_temperature;BMP_pressure;BME280_temperature;BME280_humidity;BME280_pressure;Samples;Min_cycle;Max_cycle;Signal;HPM_P1;HPM_P2
2023/03/03 00:01:50;;;;;;;;;;;2.00;99.90;;;;;;5072673;28;19990;-43
2023/03/03 00:04:16;;;;;;;;;;;2.00;99.90;;;;;;5061527;28;20003;-38
2023/03/03 00:06:44;;;;;;;;;;;2.00;99.90;;;;;;5071110;28;20032;-44
2023/03/03 00:09:10;;;;;;;;;;;2.00;99.90;;;;;;5069928;28;20030;-44
2023/03/03 00:11:37;;;;;;;;;;;2.00;99.90;;;;;;5068732;28;20358;-44
2023/03/03 00:14:10;;;;;;;;;;;2.00;99.90;;;;;;5067792;28;20336;-46
2023/03/03 00:16:38;;;;;;;;;;;2.00;99.90;;;;;;5072268;28;20049;-44
2023/03/03 00:19:07;;;;;;;;;;;2.00;99.90;;;;;;5072943;28;19943;-45
2023/03/03 00:21:40;;;;;;;;;;;2.00;99.90;;;;;;5089442;28;19940;-45
2023/03/03 00:24:14;;;;;;;;;;;2.00;99.90;;;;;;5087137;28;19943;-45
2023/03/03 00:26:41;;;;;;;;;;;2.00;99.90;;;;;;5069504;28;20421;-47
2023/03/03 00:29:24;;;;;;;;;;;2.00;99.90;;;;;;5087905;28;19937;-45
2023/03/03 00:31:52;;;;;;;;;;;2.00;99.90;;;;;;5087140;28;20416;-44
2023/03/03 00:34:20;;;;;;;;;;;2.00;99.90;;;;;;5069523;28;20040;-46
2023/03/03 00:36:47;;;;;;;;;;;2.00;99.90;;;;;;5087052;28;20037;-48
2023/03/03 00:39:17;;;;;;;;;;;2.00;99.90;;;;;;5088397;28;19997;-41
2023/03/03 00:41:44;;;;;;;;;;;2.00;99.90;;;;;;5069234;28;19996;-44
2023/03/03 00:44:27;;;;;;;;;;;2.00;99.90;;;;;;5086943;28;20060;-49
2023/03/03 00:46:55;;;;;;;;;;;2.00;99.90;;;;;;5085636;28;20384;-46
2023/03/03 00:49:23;;;;;;;;;;;2.00;99.90;;;;;;5085009;28;20415;-43
2023/03/03 00:51:50;;;;;;;;;;;2.00;99.90;;;;;;5069139;28;19969;-42
2023/03/03 00:54:16;;;;;;;;;;;2.10;99.90;;;;;;5089919;28;19986;-44
2023/03/03 00:56:43;;;;;;;;;;;2.10;99.90;;;;;;5073944;28;20031;-43
2023/03/03 00:59:10;;;;;;;;;;;2.10;99.90;;;;;;5071111;28;19952;-43
2023/03/03 01:01:36;;;;;;;;;;;2.10;99.90;;;;;;5068257;28;19994;-46
2023/03/03 01:04:04;;;;;;;;;;;2.10;99.90;;;;;;5069753;28;19981;-46
2023/03/03 01:06:31;;;;;;;;;;;2.10;99.90;;;;;;5090944;28;19998;-46
2023/03/03 01:08:58;;;;;;;;;;;2.10;99.90;;;;;;5070484;28;19979;-42
2023/03/03 01:11:25;;;;;;;;;;;2.10;99.90;;;;;;5090301;28;20420;-44
2023/03/03 01:13:52;;;;;;;;;;;2.20;99.90;;;;;;5071963;28;19956;-45
2023/03/03 01:16:18;;;;;;;;;;;2.20;99.90;;;;;;5089546;28;20082;-49
2023/03/03 01:18:45;;;;;;;;;;;2.20;99.90;;;;;;5091069;28;19950;-45
2023/03/03 01:21:13;;;;;;;;;;;2.20;99.90;;;;;;5094993;28;20027;-46
2023/03/03 01:23:40;;;;;;;;;;;2.20;99.90;;;;;;5076370;28;20019;-45
2023/03/03 01:26:07;;;;;;;;;;;2.20;99.90;;;;;;5095506;28;20447;-46
2023/03/03 01:28:33;;;;;;;;;;;2.20;99.90;;;;;;5077402;28;20552;-46
2023/03/03 01:31:00;;;;;;;;;;;2.30;99.90;;;;;;5077506;28;20347;-39
2023/03/03 01:33:27;;;;;;;;;;;2.20;99.90;;;;;;5075698;28;20360;-44
2023/03/03 01:35:53;;;;;;;;;;;2.20;99.90;;;;;;5076983;28;19948;-44
2023/03/03 01:38:21;;;;;;;;;;;2.20;99.90;;;;;;5076100;28;20033;-41
2023/03/03 01:40:51;;;;;;;;;;;2.20;99.90;;;;;;5096078;28;19980;-42
2023/03/03 01:43:18;;;;;;;;;;;2.20;99.90;;;;;;5075129;28;20033;-43
2023/03/03 01:46:00;;;;;;;;;;;2.20;99.90;;;;;;5095823;28;19987;-46
2023/03/03 01:48:28;;;;;;;;;;;2.20;99.90;;;;;;5076171;28;19996;-43
2023/03/03 01:50:55;;;;;;;;;;;2.30;99.90;;;;;;5093823;28;20000;-42
2023/03/03 01:53:23;;;;;;;;;;;2.30;99.90;;;;;;5094828;28;19995;-45
2023/03/03 01:55:50;;;;;;;;;;;2.30;99.90;;;;;;5075951;28;20455;-43
2023/03/03 01:58:18;;;;;;;;;;;2.20;99.90;;;;;;5076831;28;19941;-45
2023/03/03 02:00:45;;;;;;;;;;;2.20;99.90;;;;;;5077848;28;19987;-45
2023/03/03 02:03:11;;;;;;;;;;;2.20;99.90;;;;;;5094834;28;19943;-44
2023/03/03 02:05:38;;;;;;;;;;;2.20;99.90;;;;;;5076217;28;19983;-45
2023/03/03 02:08:05;;;;;;;;;;;2.30;99.90;;;;;;5094132;28;19940;-42
2023/03/03 02:10:33;;;;;;;;;;;2.30;99.90;;;;;;5075091;28;20455;-42
2023/03/03 02:12:59;;;;;;;;;;;2.30;99.90;;;;;;5057616;28;20497;-44
2023/03/03 02:15:27;;;;;;;;;;;2.30;99.90;;;;;;5072852;28;20014;-45
2023/03/03 02:17:54;;;;;;;;;;;2.30;99.90;;;;;;5095162;28;20429;-42
2023/03/03 02:20:25;;;;;;;;;;;2.30;99.90;;;;;;5075560;28;19987;-45
2023/03/03 02:22:53;;;;;;;;;;;2.30;99.90;;;;;;5076593;28;19996;-43
2023/03/03 02:25:22;;;;;;;;;;;2.30;99.90;;;;;;5075664;28;19938;-45
2023/03/03 02:27:50;;;;;;;;;;;2.30;99.90;;;;;;5103054;28;19999;-43
2023/03/03 02:30:18;;;;;;;;;;;2.30;99.90;;;;;;5080452;28;19985;-43
2023/03/03 02:32:45;;;;;;;;;;;2.30;99.90;;;;;;5093103;28;19958;-45
2023/03/03 02:35:35;;;;;;;;;;;2.30;99.90;;;;;;5074630;28;19984;-45
2023/03/03 02:38:04;;;;;;;;;;;2.30;99.90;;;;;;5050366;28;19936;-45
2023/03/03 02:40:31;;;;;;;;;;;2.40;99.90;;;;;;5075347;28;19942;-44
2023/03/03 02:42:59;;;;;;;;;;;2.30;99.90;;;;;;5076121;28;19969;-44
2023/03/03 02:45:26;;;;;;;;;;;2.40;99.90;;;;;;5092939;28;19990;-42
2023/03/03 02:47:53;;;;;;;;;;;2.40;99.90;;;;;;5075583;28;19980;-42
2023/03/03 02:50:19;;;;;;;;;;;2.40;99.90;;;;;;5074160;28;20473;-43
2023/03/03 02:52:46;;;;;;;;;;;2.30;99.90;;;;;;5094208;28;20044;-44
2023/03/03 02:55:12;;;;;;;;;;;2.40;99.90;;;;;;5073256;28;19997;-44
2023/03/03 02:57:39;;;;;;;;;;;2.40;99.90;;;;;;5074399;28;19944;-44
2023/03/03 03:00:08;;;;;;;;;;;2.40;99.90;;;;;;5093890;28;19942;-43
2023/03/03 03:02:35;;;;;;;;;;;2.40;99.90;;;;;;5091433;28;20569;-45
2023/03/03 03:05:14;;;;;;;;;;;2.40;99.90;;;;;;5075561;28;19980;-45
2023/03/03 03:07:40;;;;;;;;;;;2.40;99.90;;;;;;5091473;28;19942;-43
2023/03/03 03:10:07;;;;;;;;;;;2.40;99.90;;;;;;5092667;28;19992;-47
2023/03/03 03:12:34;;;;;;;;;;;2.40;99.90;;;;;;5076691;28;20047;-43
2023/03/03 03:15:01;;;;;;;;;;;2.40;99.90;;;;;;5091888;28;19984;-44
2023/03/03 03:17:29;;;;;;;;;;;2.40;99.90;;;;;;5092532;28;19941;-44
2023/03/03 03:19:55;;;;;;;;;;;2.40;99.90;;;;;;5073235;28;19939;-44
2023/03/03 03:22:22;;;;;;;;;;;2.40;99.90;;;;;;5075010;28;19994;-43
2023/03/03 03:24:48;;;;;;;;;;;2.40;99.90;;;;;;5075354;28;20096;-45
2023/03/03 03:27:15;;;;;;;;;;;2.40;99.90;;;;;;5091229;28;20050;-42
2023/03/03 03:29:42;;;;;;;;;;;2.40;99.90;;;;;;5092420;28;19986;-45
2023/03/03 03:32:08;;;;;;;;;;;2.40;99.90;;;;;;5074149;28;19992;-41
2023/03/03 03:34:36;;;;;;;;;;;2.40;99.90;;;;;;5075910;28;20045;-43
2023/03/03 03:37:03;;;;;;;;;;;2.40;99.90;;;;;;5070871;28;20361;-43
2023/03/03 03:39:29;;;;;;;;;;;2.40;99.90;;;;;;5074841;28;19990;-44
2023/03/03 03:41:56;;;;;;;;;;;2.40;99.90;;;;;;5092085;28;19998;-43
2023/03/03 03:44:24;;;;;;;;;;;2.40;99.90;;;;;;5090854;28;20358;-44
2023/03/03 03:46:50;;;;;;;;;;;2.30;99.90;;;;;;5092516;28;19954;-45
2023/03/03 03:49:17;;;;;;;;;;;2.30;99.90;;;;;;5073944;28;19979;-46
2023/03/03 03:51:45;;;;;;;;;;;2.30;99.90;;;;;;5090895;28;20404;-44
2023/03/03 03:54:11;;;;;;;;;;;2.30;99.90;;;;;;5093570;28;20001;-45
2023/03/03 03:56:38;;;;;;;;;;;2.30;99.90;;;;;;5093297;28;19992;-44
2023/03/03 03:59:05;;;;;;;;;;;2.40;99.90;;;;;;5090566;28;20030;-41
2023/03/03 04:01:32;;;;;;;;;;;2.40;99.90;;;;;;5091551;28;19985;-43
2023/03/03 04:03:58;;;;;;;;;;;2.40;99.90;;;;;;5073203;28;19997;-44
2023/03/03 04:06:25;;;;;;;;;;;2.40;99.90;;;;;;5090141;28;20364;-44
2023/03/03 04:08:53;;;;;;;;;;;2.40;99.90;;;;;;5093015;28;20323;-46
2023/03/03 04:11:20;;;;;;;;;;;2.40;99.90;;;;;;5074621;28;20025;-43
2023/03/03 04:13:46;;;;;;;;;;;2.40;99.90;;;;;;5074256;28;20007;-44
2023/03/03 04:16:13;;;;;;;;;;;2.50;99.90;;;;;;5091464;28;19995;-47
2023/03/03 04:18:39;;;;;;;;;;;2.40;99.90;;;;;;5073245;28;19945;-39
2023/03/03 04:21:06;;;;;;;;;;;2.50;99.90;;;;;;5072712;28;20042;-45
2023/03/03 04:23:33;;;;;;;;;;;2.40;99.90;;;;;;5087181;28;19999;-41
2023/03/03 04:26:01;;;;;;;;;;;2.50;99.90;;;;;;5091300;28;19940;-42
2023/03/03 04:28:27;;;;;;;;;;;2.40;99.90;;;;;;5089175;28;19980;-45
2023/03/03 04:30:54;;;;;;;;;;;2.40;99.90;;;;;;5092654;28;20039;-43
2023/03/03 04:33:20;;;;;;;;;;;2.40;99.90;;;;;;5091789;28;20060;-41
2023/03/03 04:35:47;;;;;;;;;;;2.40;99.90;;;;;;5090756;28;20002;-43
2023/03/03 04:38:14;;;;;;;;;;;2.30;99.90;;;;;;5089934;28;19986;-43
2023/03/03 04:40:40;;;;;;;;;;;2.30;99.90;;;;;;5088668;28;19984;-44
2023/03/03 04:43:08;;;;;;;;;;;2.40;99.90;;;;;;5074063;28;20069;-46
2023/03/03 04:45:35;;;;;;;;;;;2.30;99.90;;;;;;5091561;28;19990;-45
2023/03/03 04:48:02;;;;;;;;;;;2.20;99.90;;;;;;5072020;28;19942;-43
2023/03/03 04:50:28;;;;;;;;;;;2.30;99.90;;;;;;5072175;28;20029;-44
2023/03/03 04:52:55;;;;;;;;;;;2.20;99.90;;;;;;5089934;28;19989;-44
2023/03/03 04:55:22;;;;;;;;;;;2.30;99.90;;;;;;5091006;28;19980;-45
2023/03/03 04:57:48;;;;;;;;;;;2.20;99.90;;;;;;5074117;28;20320;-47
2023/03/03 05:00:17;;;;;;;;;;;2.30;99.90;;;;;;5089105;28;19982;-42
2023/03/03 05:02:43;;;;;;;;;;;2.30;99.90;;;;;;5088187;28;20025;-44
2023/03/03 05:05:10;;;;;;;;;;;2.30;99.90;;;;;;5072979;28;19995;-44
2023/03/03 05:07:37;;;;;;;;;;;2.30;99.90;;;;;;5067932;28;19966;-47
2023/03/03 05:10:03;;;;;;;;;;;2.30;99.90;;;;;;5071818;28;20000;-47
2023/03/03 05:12:30;;;;;;;;;;;2.30;99.90;;;;;;5090372;28;20392;-43
2023/03/03 05:14:57;;;;;;;;;;;2.30;99.90;;;;;;5091507;28;20415;-40
2023/03/03 05:17:25;;;;;;;;;;;2.30;99.90;;;;;;5090404;28;20008;-44
2023/03/03 05:19:51;;;;;;;;;;;2.30;99.90;;;;;;5090683;28;19983;-41
2023/03/03 05:22:18;;;;;;;;;;;2.30;99.90;;;;;;5072033;28;20099;-44
2023/03/03 05:24:47;;;;;;;;;;;2.30;99.90;;;;;;5089621;28;19998;-41
2023/03/03 05:27:14;;;;;;;;;;;2.40;99.90;;;;;;5089294;28;19943;-44
2023/03/03 05:29:41;;;;;;;;;;;2.30;99.90;;;;;;5070562;28;20387;-44
2023/03/03 05:32:07;;;;;;;;;;;2.30;99.90;;;;;;5089500;28;19972;-45
2023/03/03 05:34:35;;;;;;;;;;;2.40;99.90;;;;;;5072094;28;19960;-46
2023/03/03 05:37:05;;;;;;;;;;;2.40;99.90;;;;;;5090399;28;20434;-45
2023/03/03 05:39:32;;;;;;;;;;;2.40;99.90;;;;;;5092421;28;19943;-43
2023/03/03 05:42:01;;;;;;;;;;;2.40;99.90;;;;;;5090516;28;19994;-46
2023/03/03 05:44:28;;;;;;;;;;;2.40;99.90;;;;;;5090575;28;20023;-48
2023/03/03 05:46:56;;;;;;;;;;;2.40;99.90;;;;;;5089879;28;19947;-45
2023/03/03 05:49:23;;;;;;;;;;;2.40;99.90;;;;;;5070941;28;19943;-41
2023/03/03 05:51:51;;;;;;;;;;;2.40;99.90;;;;;;5073006;28;20304;-43
2023/03/03 05:54:17;;;;;;;;;;;2.40;99.90;;;;;;5086927;28;20386;-45
2023/03/03 05:56:44;;;;;;;;;;;2.40;99.90;;;;;;5067790;28;20051;-41
2023/03/03 05:59:11;;;;;;;;;;;2.50;99.90;;;;;;5068913;28;19941;-40
2023/03/03 06:01:37;;;;;;;;;;;2.50;99.90;;;;;;5065498;28;19938;-44
2023/03/03 06:04:04;;;;;;;;;;;2.50;99.90;;;;;;5072632;28;19985;-44
2023/03/03 06:06:31;;;;;;;;;;;2.50;99.90;;;;;;5076804;28;19936;-44
2023/03/03 06:08:59;;;;;;;;;;;2.50;99.90;;;;;;5077642;28;20042;-45
2023/03/03 06:11:25;;;;;;;;;;;2.50;99.90;;;;;;5093016;28;20041;-47
2023/03/03 06:13:52;;;;;;;;;;;2.50;99.90;;;;;;5093041;28;20059;-43
2023/03/03 06:16:19;;;;;;;;;;;2.50;99.90;;;;;;5059524;28;20369;-46
2023/03/03 06:18:46;;;;;;;;;;;2.50;99.90;;;;;;5053522;28;20429;-44
2023/03/03 06:21:12;;;;;;;;;;;2.50;99.90;;;;;;5053573;28;19996;-43
2023/03/03 06:23:39;;;;;;;;;;;2.50;99.90;;;;;;5049521;28;20022;-46
2023/03/03 06:26:07;;;;;;;;;;;2.50;99.90;;;;;;5050041;28;20026;-44
2023/03/03 06:28:33;;;;;;;;;;;2.50;99.90;;;;;;5049645;28;19948;-46
2023/03/03 06:31:00;;;;;;;;;;;2.60;99.90;;;;;;5053490;28;19948;-46
2023/03/03 06:33:27;;;;;;;;;;;2.50;99.90;;;;;;5050009;28;19992;-48
2023/03/03 06:35:54;;;;;;;;;;;2.50;99.90;;;;;;5051857;28;20028;-41
2023/03/03 06:38:20;;;;;;;;;;;2.50;99.90;;;;;;5050575;28;19943;-46
2023/03/03 06:40:47;;;;;;;;;;;2.60;99.90;;;;;;5037624;28;20423;-48
2023/03/03 06:43:15;;;;;;;;;;;2.60;99.90;;;;;;5050917;28;19988;-48
2023/03/03 06:45:42;;;;;;;;;;;2.60;99.90;;;;;;5052834;28;20013;-43
2023/03/03 06:48:08;;;;;;;;;;;2.60;99.90;;;;;;5047664;28;19939;-44
2023/03/03 06:50:35;;;;;;;;;;;2.70;99.90;;;;;;5050273;28;20044;-45
2023/03/03 06:53:02;;;;;;;;;;;2.60;99.90;;;;;;5051703;28;20038;-40
2023/03/03 06:55:29;;;;;;;;;;;2.70;99.90;;;;;;5040964;28;20497;-42
2023/03/03 06:57:56;;;;;;;;;;;2.70;99.90;;;;;;5048818;28;19942;-41
2023/03/03 07:00:25;;;;;;;;;;;2.70;99.90;;;;;;5047506;28;20445;-45
2023/03/03 07:02:53;;;;;;;;;;;2.70;99.90;;;;;;5047738;28;20028;-45
2023/03/03 07:05:26;;;;;;;;;;;2.70;99.90;;;;;;5037375;28;19997;-44
2023/03/03 07:07:53;;;;;;;;;;;2.70;99.90;;;;;;5046240;28;19986;-43
2023/03/03 07:10:21;;;;;;;;;;;2.80;99.90;;;;;;5043126;28;19957;-44
2023/03/03 07:12:48;;;;;;;;;;;2.70;99.90;;;;;;5049154;28;19989;-43
2023/03/03 07:15:15;;;;;;;;;;;2.80;99.90;;;;;;5055349;28;21081;-45
2023/03/03 07:17:44;;;;;;;;;;;2.90;99.90;;;;;;5070048;28;19986;-46
2023/03/03 07:20:12;;;;;;;;;;;2.90;99.90;;;;;;5089173;28;19943;-45
2023/03/03 07:22:38;;;;;;;;;;;2.80;99.90;;;;;;5086584;28;19987;-41
2023/03/03 07:25:06;;;;;;;;;;;2.80;99.90;;;;;;5069686;28;20035;-43
2023/03/03 07:27:33;;;;;;;;;;;2.80;99.90;;;;;;5071099;28;19992;-44
2023/03/03 07:30:02;;;;;;;;;;;2.90;99.90;;;;;;5090218;28;19941;-45
2023/03/03 07:32:31;;;;;;;;;;;2.90;99.90;;;;;;5066387;28;19994;-39
2023/03/03 07:34:59;;;;;;;;;;;3.00;99.90;;;;;;5085893;28;20552;-46
2023/03/03 07:37:28;;;;;;;;;;;2.90;99.90;;;;;;5071861;28;20417;-40
2023/03/03 07:39:55;;;;;;;;;;;2.90;99.90;;;;;;5088547;28;19987;-42
2023/03/03 07:42:22;;;;;;;;;;;3.00;99.90;;;;;;5068697;28;20018;-44
2023/03/03 07:44:50;;;;;;;;;;;3.00;99.90;;;;;;5086644;28;19996;-42
2023/03/03 07:47:19;;;;;;;;;;;3.00;99.90;;;;;;5069169;28;20415;-47
2023/03/03 07:49:45;;;;;;;;;;;3.10;99.90;;;;;;5091432;28;19952;-46
2023/03/03 07:52:23;;;;;;;;;;;3.10;99.90;;;;;;5071495;28;20317;-44
2023/03/03 07:54:50;;;;;;;;;;;3.10;99.90;;;;;;5086779;28;19994;-40
2023/03/03 07:57:19;;;;;;;;;;;3.10;99.90;;;;;;5079568;28;20360;-46
2023/03/03 07:59:46;;;;;;;;;;;3.00;99.90;;;;;;5087140;28;20427;-43
2023/03/03 08:02:16;;;;;;;;;;;3.10;99.90;;;;;;5071313;28;20319;-48
2023/03/03 08:04:46;;;;;;;;;;;3.20;99.90;;;;;;5091000;28;20356;-45
2023/03/03 08:07:15;;;;;;;;;;;3.20;99.90;;;;;;5091628;28;19947;-45
2023/03/03 08:09:47;;;;;;;;;;;3.20;99.90;;;;;;5072665;28;19941;-49
2023/03/03 08:12:46;;;;;;;;;;;3.20;99.90;;;;;;5090003;28;19981;-45
2023/03/03 08:15:19;;;;;;;;;;;3.20;99.90;;;;;;5063468;28;20444;-44
2023/03/03 08:17:46;;;;;;;;;;;3.30;99.90;;;;;;5072259;28;19938;-43
2023/03/03 08:20:40;;;;;;;;;;;3.30;99.90;;;;;;5072184;28;19947;-43
2023/03/03 08:23:07;;;;;;;;;;;3.30;99.90;;;;;;5030371;28;19997;-47
2023/03/03 08:25:35;;;;;;;;;;;3.40;99.90;;;;;;5070395;28;20424;-47
2023/03/03 08:28:01;;;;;;;;;;;3.40;99.90;;;;;;5070574;28;19981;-45
2023/03/03 08:30:28;;;;;;;;;;;3.40;99.90;;;;;;5089293;28;20423;-47
2023/03/03 08:32:55;;;;;;;;;;;3.60;99.90;;;;;;5091453;28;19997;-45
2023/03/03 08:35:21;;;;;;;;;;;3.50;99.90;;;;;;5072145;28;20306;-45
2023/03/03 08:37:48;;;;;;;;;;;3.60;99.90;;;;;;5092805;28;20040;-47
2023/03/03 08:40:14;;;;;;;;;;;3.60;99.90;;;;;;5070178;28;19989;-46
2023/03/03 08:42:42;;;;;;;;;;;3.70;99.90;;;;;;5069598;28;19979;-44
2023/03/03 08:45:09;;;;;;;;;;;3.70;99.90;;;;;;5086801;28;20032;-41
2023/03/03 08:47:37;;;;;;;;;;;3.70;99.90;;;;;;5073020;28;19993;-43
2023/03/03 08:50:04;;;;;;;;;;;3.80;99.90;;;;;;5089878;28;19943;-45
2023/03/03 08:52:30;;;;;;;;;;;3.80;99.90;;;;;;5089990;28;19966;-46
2023/03/03 08:54:57;;;;;;;;;;;3.90;99.90;;;;;;5089594;28;19960;-45
2023/03/03 08:57:24;;;;;;;;;;;4.00;99.90;;;;;;5090298;28;20391;-46
2023/03/03 08:59:52;;;;;;;;;;;4.10;99.90;;;;;;5089042;28;20038;-45
2023/03/03 09:02:18;;;;;;;;;;;4.20;99.90;;;;;;5090306;28;20002;-48
2023/03/03 09:04:45;;;;;;;;;;;4.40;99.90;;;;;;5089428;28;19941;-42
2023/03/03 09:07:11;;;;;;;;;;;4.50;99.90;;;;;;5071116;28;19985;-48
2023/03/03 09:09:38;;;;;;;;;;;4.50;99.90;;;;;;5071029;28;19932;-45
2023/03/03 09:12:08;;;;;;;;;;;4.50;99.90;;;;;;5090193;28;19998;-44
2023/03/03 09:14:34;;;;;;;;;;;4.60;99.90;;;;;;5060683;28;19999;-47
2023/03/03 09:17:02;;;;;;;;;;;4.60;99.90;;;;;;5070099;28;19964;-44
2023/03/03 09:19:31;;;;;;;;;;;4.60;99.90;;;;;;5073001;28;20417;-45
2023/03/03 09:21:59;;;;;;;;;;;4.60;99.90;;;;;;5072328;28;20404;-42
2023/03/03 09:24:26;;;;;;;;;;;4.60;99.90;;;;;;5088663;28;20056;-47
2023/03/03 09:26:53;;;;;;;;;;;4.60;99.90;;;;;;5070509;28;20005;-47
2023/03/03 09:29:24;;;;;;;;;;;4.60;99.90;;;;;;5088719;28;20046;-45
2023/03/03 09:31:51;;;;;;;;;;;4.60;99.90;;;;;;5070538;28;19995;-44
2023/03/03 09:34:21;;;;;;;;;;;4.60;99.90;;;;;;5071193;28;19943;-44
2023/03/03 09:36:48;;;;;;;;;;;4.60;99.90;;;;;;5087532;28;20317;-44
2023/03/03 09:39:17;;;;;;;;;;;4.60;99.90;;;;;;5089421;28;19949;-45
2023/03/03 09:41:46;;;;;;;;;;;4.60;99.90;;;;;;5075638;28;19941;-44
2023/03/03 09:44:25;;;;;;;;;;;4.80;99.90;;;;;;5093326;28;20033;-43
2023/03/03 09:46:55;;;;;;;;;;;4.70;99.90;;;;;;5073911;28;20034;-43
2023/03/03 09:49:25;;;;;;;;;;;4.80;99.90;;;;;;5090685;28;19991;-41
2023/03/03 09:51:55;;;;;;;;;;;4.90;99.90;;;;;;5090217;28;19950;-45
2023/03/03 09:54:25;;;;;;;;;;;4.80;99.90;;;;;;5080585;28;20034;-43
2023/03/03 09:56:53;;;;;;;;;;;4.80;99.90;;;;;;5084817;28;19955;-42
2023/03/03 09:59:23;;;;;;;;;;;4.90;99.90;;;;;;5075000;28;19981;-40
2023/03/03 10:01:52;;;;;;;;;;;4.90;99.90;;;;;;5091737;28;20015;-42
2023/03/03 10:04:33;;;;;;;;;;;4.90;99.90;;;;;;5091996;28;20036;-41
2023/03/03 10:07:05;;;;;;;;;;;5.00;99.90;;;;;;5070260;28;19983;-42
2023/03/03 10:09:44;;;;;;;;;;;5.00;99.90;;;;;;5092832;28;19981;-41
2023/03/03 10:12:11;;;;;;;;;;;5.10;99.90;;;;;;5090499;28;19940;-46
2023/03/03 10:14:45;;;;;;;;;;;5.20;99.90;;;;;;5071512;28;19997;-40
2023/03/03 10:17:17;;;;;;;;;;;5.20;99.90;;;;;;5094066;28;20010;-43
2023/03/03 10:19:46;;;;;;;;;;;5.30;99.90;;;;;;5093213;28;19943;-44
2023/03/03 10:22:19;;;;;;;;;;;5.30;99.90;;;;;;5073053;28;19946;-43
2023/03/03 10:24:47;;;;;;;;;;;5.30;99.90;;;;;;5092052;28;20034;-46
2023/03/03 10:27:19;;;;;;;;;;;5.40;99.90;;;;;;5091056;28;20294;-47
2023/03/03 10:29:49;;;;;;;;;;;5.40;99.90;;;;;;5073570;28;19989;-40
2023/03/03 10:32:21;;;;;;;;;;;5.50;99.90;;;;;;5074864;28;20368;-43
2023/03/03 10:34:51;;;;;;;;;;;5.50;99.90;;;;;;5092714;28;19963;-42
2023/03/03 10:37:21;;;;;;;;;;;5.60;99.90;;;;;;5074781;28;20357;-43
2023/03/03 10:39:57;;;;;;;;;;;5.60;99.90;;;;;;5074393;28;19947;-44
2023/03/03 10:42:31;;;;;;;;;;;5.70;99.90;;;;;;5092326;28;19992;-42
2023/03/03 10:45:04;;;;;;;;;;;5.70;99.90;;;;;;5092030;28;19997;-44
2023/03/03 10:47:47;;;;;;;;;;;5.70;99.90;;;;;;5074413;28;19941;-47
2023/03/03 10:50:15;;;;;;;;;;;5.80;99.90;;;;;;5088873;28;19959;-45
2023/03/03 10:52:44;;;;;;;;;;;5.90;99.90;;;;;;5091320;28;20001;-46
2023/03/03 10:55:29;;;;;;;;;;;5.90;99.90;;;;;;5089255;28;20431;-39
2023/03/03 10:58:00;;;;;;;;;;;6.00;99.90;;;;;;5069874;28;20003;-44
2023/03/03 11:00:27;;;;;;;;;;;6.10;99.90;;;;;;5091644;28;20042;-43
2023/03/03 11:02:59;;;;;;;;;;;6.20;99.90;;;;;;5068145;28;19973;-46
2023/03/03 11:05:29;;;;;;;;;;;6.30;99.90;;;;;;5090705;28;19982;-42
2023/03/03 11:07:57;;;;;;;;;;;6.30;99.90;;;;;;5093473;28;19943;-43
2023/03/03 11:10:29;;;;;;;;;;;6.50;99.90;;;;;;5071637;28;20405;-43
2023/03/03 11:13:02;;;;;;;;;;;6.50;99.90;;;;;;5069363;28;19977;-42
2023/03/03 11:15:34;;;;;;;;;;;6.60;99.90;;;;;;5087779;28;19984;-42
2023/03/03 11:18:09;;;;;;;;;;;6.60;99.90;;;;;;5092238;28;20393;-46
2023/03/03 11:20:36;;;;;;;;;;;6.80;99.90;;;;;;5092123;28;20031;-45
2023/03/03 11:23:06;;;;;;;;;;;6.80;99.90;;;;;;5074091;28;19947;-45
2023/03/03 11:25:34;;;;;;;;;;;6.90;99.90;;;;;;5074859;28;19980;-44
2023/03/03 11:28:04;;;;;;;;;;;7.00;99.90;;;;;;5094116;28;19998;-44
2023/03/03 11:30:34;;;;;;;;;;;7.00;99.90;;;;;;5071840;28;19984;-44
2023/03/03 11:33:03;;;;;;;;;;;7.10;99.90;;;;;;5060021;28;19940;-45
2023/03/03 11:35:32;;;;;;;;;;;7.30;99.90;;;;;;5089119;28;20035;-43
2023/03/03 11:38:02;;;;;;;;;;;7.50;99.90;;;;;;5092983;28;19991;-47
2023/03/03 11:40:32;;;;;;;;;;;7.70;99.90;;;;;;5070657;28;19999;-42
2023/03/03 11:43:01;;;;;;;;;;;7.90;99.90;;;;;;5091758;28;19940;-45
2023/03/03 11:45:29;;;;;;;;;;;8.10;99.90;;;;;;5089688;28;19951;-47
2023/03/03 11:47:57;;;;;;;;;;;8.10;99.90;;;;;;5074603;28;19939;-44
2023/03/03 11:50:25;;;;;;;;;;;8.20;99.90;;;;;;5074290;28;19991;-46
2023/03/03 11:52:53;;;;;;;;;;;8.30;99.90;;;;;;5089187;28;20379;-46
2023/03/03 11:55:20;;;;;;;;;;;8.30;99.90;;;;;;5093463;28;20397;-44
2023/03/03 11:57:50;;;;;;;;;;;8.30;99.90;;;;;;5073642;28;19950;-45
2023/03/03 12:00:25;;;;;;;;;;;8.30;99.90;;;;;;5075444;28;19945;-44
2023/03/03 12:02:58;;;;;;;;;;;8.30;99.90;;;;;;5070260;28;20000;-46
2023/03/03 12:05:31;;;;;;;;;;;8.30;99.90;;;;;;5093031;28;20439;-43
2023/03/03 12:07:59;;;;;;;;;;;8.30;99.90;;;;;;5074053;28;19980;-43
2023/03/03 12:10:27;;;;;;;;;;;8.40;99.90;;;;;;5072508;28;19994;-44
2023/03/03 12:12:58;;;;;;;;;;;8.40;99.90;;;;;;5074576;28;19987;-42
2023/03/03 12:15:27;;;;;;;;;;;8.40;99.90;;;;;;5068023;28;19967;-47
2023/03/03 12:18:13;;;;;;;;;;;8.40;99.90;;;;;;5088253;28;19997;-43
2023/03/03 12:20:40;;;;;;;;;;;8.40;99.90;;;;;;5090573;28;20156;-44
2023/03/03 12:23:11;;;;;;;;;;;8.50;99.90;;;;;;5089155;28;19985;-45
2023/03/03 12:25:38;;;;;;;;;;;8.50;99.90;;;;;;5091051;28;19988;-43
2023/03/03 12:28:07;;;;;;;;;;;8.50;99.90;;;;;;5089913;28;19972;-41
2023/03/03 12:30:41;;;;;;;;;;;8.50;99.90;;;;;;5089005;28;19989;-44
2023/03/03 12:33:11;;;;;;;;;;;8.50;99.90;;;;;;5090418;28;19950;-46
2023/03/03 12:35:39;;;;;;;;;;;8.60;99.90;;;;;;5090168;28;19999;-42
2023/03/03 12:38:07;;;;;;;;;;;8.60;99.90;;;;;;5089108;28;19990;-45
2023/03/03 12:40:35;;;;;;;;;;;8.50;99.90;;;;;;5072671;28;20391;-44
2023/03/03 12:43:05;;;;;;;;;;;8.40;99.90;;;;;;5090476;28;19999;-42
2023/03/03 12:45:35;;;;;;;;;;;8.30;99.90;;;;;;5087749;28;19945;-44
2023/03/03 12:48:05;;;;;;;;;;;8.20;99.90;;;;;;5070485;28;19943;-42
2023/03/03 12:50:35;;;;;;;;;;;8.20;99.90;;;;;;5088881;28;19945;-46
2023/03/03 12:53:04;;;;;;;;;;;8.30;99.90;;;;;;5090048;28;19996;-44
2023/03/03 12:55:33;;;;;;;;;;;8.30;99.90;;;;;;5072328;28;19950;-42
2023/03/03 12:58:01;;;;;;;;;;;8.50;99.90;;;;;;5074709;28;19954;-44
2023/03/03 13:00:28;;;;;;;;;;;8.60;99.90;;;;;;5087159;28;19943;-45
2023/03/03 13:03:00;;;;;;;;;;;8.60;99.90;;;;;;5072438;28;20334;-45
2023/03/03 13:05:29;;;;;;;;;;;8.70;99.90;;;;;;5090295;28;20027;-45
2023/03/03 13:08:05;;;;;;;;;;;8.60;99.90;;;;;;5073259;28;20429;-47
2023/03/03 13:10:34;;;;;;;;;;;8.70;99.90;;;;;;5088981;28;19977;-45
2023/03/03 13:13:02;;;;;;;;;;;8.70;99.90;;;;;;5072831;28;19975;-44
2023/03/03 13:15:28;;;;;;;;;;;8.70;99.90;;;;;;5072880;28;20005;-46
2023/03/03 13:18:03;;;;;;;;;;;8.70;99.90;;;;;;5087115;28;20076;-45
2023/03/03 13:20:32;;;;;;;;;;;8.70;99.90;;;;;;5092024;28;19994;-44
2023/03/03 13:22:59;;;;;;;;;;;8.80;99.90;;;;;;5076759;28;20025;-45
2023/03/03 13:25:38;;;;;;;;;;;8.80;99.90;;;;;;5094466;28;20393;-40
2023/03/03 13:28:06;;;;;;;;;;;8.80;99.90;;;;;;5095588;28;20023;-44
2023/03/03 13:30:33;;;;;;;;;;;8.80;99.90;;;;;;5077489;28;19949;-47
2023/03/03 13:33:01;;;;;;;;;;;8.90;99.90;;;;;;5092829;28;20398;-44
2023/03/03 13:35:33;;;;;;;;;;;9.00;99.90;;;;;;5074309;28;19992;-45
2023/03/03 13:37:59;;;;;;;;;;;9.20;99.90;;;;;;5070989;28;19943;-43
2023/03/03 13:40:26;;;;;;;;;;;9.30;99.90;;;;;;5095202;28;20004;-42
2023/03/03 13:42:54;;;;;;;;;;;9.30;99.90;;;;;;5093176;28;19939;-43
2023/03/03 13:45:22;;;;;;;;;;;9.50;99.90;;;;;;5076211;28;19947;-45
2023/03/03 13:47:50;;;;;;;;;;;9.70;99.90;;;;;;5095993;28;20365;-46
2023/03/03 13:50:21;;;;;;;;;;;9.90;99.90;;;;;;5095859;28;19945;-42
2023/03/03 13:52:50;;;;;;;;;;;10.00;99.90;;;;;;5073332;28;20001;-44
2023/03/03 13:55:21;;;;;;;;;;;10.10;99.90;;;;;;5076235;28;20443;-45
2023/03/03 13:57:52;;;;;;;;;;;10.10;99.90;;;;;;5075021;28;20004;-44
2023/03/03 14:00:21;;;;;;;;;;;10.20;99.90;;;;;;5077203;28;19948;-43
2023/03/03 14:02:57;;;;;;;;;;;10.20;99.90;;;;;;5078096;28;19987;-43
2023/03/03 14:05:28;;;;;;;;;;;10.30;99.90;;;;;;5091799;28;20377;-44
2023/03/03 14:07:56;;;;;;;;;;;10.40;99.90;;;;;;5075303;28;19952;-46
2023/03/03 14:10:24;;;;;;;;;;;10.40;99.90;;;;;;5095553;28;19984;-43
2023/03/03 14:12:51;;;;;;;;;;;10.40;99.90;;;;;;5095292;28;19949;-42
2023/03/03 14:15:20;;;;;;;;;;;10.40;99.90;;;;;;5072478;28;20061;-43
2023/03/03 14:17:52;;;;;;;;;;;10.40;99.90;;;;;;5071996;28;19963;-42
2023/03/03 14:20:20;;;;;;;;;;;10.40;99.90;;;;;;5075532;28;19940;-44
2023/03/03 14:22:49;;;;;;;;;;;10.40;99.90;;;;;;5093725;28;19990;-45
2023/03/03 14:25:16;;;;;;;;;;;10.50;99.90;;;;;;5091996;28;19948;-46
2023/03/03 14:27:53;;;;;;;;;;;10.60;99.90;;;;;;5077475;28;20050;-46
2023/03/03 14:30:25;;;;;;;;;;;10.70;99.90;;;;;;5073166;28;19948;-42
2023/03/03 14:32:59;;;;;;;;;;;10.80;99.90;;;;;;5088421;28;20054;-43
2023/03/03 14:35:25;;;;;;;;;;;10.70;99.90;;;;;;5071510;28;20042;-47
2023/03/03 14:37:53;;;;;;;;;;;10.60;99.90;;;;;;5075678;28;19967;-42